createdAt,value
2022-12-12T00:02:14.500Z,28.20
2022-12-12T00:04:41.767Z,26.40
2022-12-12T00:07:08.897Z,27.93
2022-12-12T00:09:37.432Z,28.50
2022-12-12T00:12:04.931Z,27.50
2022-12-12T00:14:32.286Z,27.00
2022-12-12T00:17:00.656Z,27.93
2022-12-12T00:19:28.064Z,27.57
2022-12-12T00:21:55.366Z,25.90
2022-12-12T00:24:22.503Z,28.37
2022-12-12T00:26:50.415Z,28.53
2022-12-12T00:29:17.623Z,24.80
2022-12-12T00:31:44.926Z,28.40
2022-12-12T00:34:13.336Z,27.40
2022-12-12T00:36:40.484Z,24.97
2022-12-12T00:39:07.815Z,25.23
2022-12-12T00:41:37.147Z,27.97
2022-12-12T00:44:05.216Z,27.80
2022-12-12T00:46:32.591Z,27.77
2022-12-12T00:49:00.939Z,27.00
2022-12-12T00:51:29.931Z,29.37
2022-12-12T00:53:57.910Z,26.90
2022-12-12T00:56:25.676Z,27.03
2022-12-12T00:58:53.264Z,27.80
2022-12-12T01:01:22.210Z,27.67
2022-12-12T01:03:49.666Z,26.70
2022-12-12T01:06:17.581Z,27.13
2022-12-12T01:08:44.823Z,28.70
2022-12-12T01:11:14.171Z,27.00
2022-12-12T01:13:42.146Z,26.50
2022-12-12T01:16:10.651Z,27.00
2022-12-12T01:18:38.245Z,27.40
2022-12-12T01:21:08.423Z,29.77
2022-12-12T01:23:35.837Z,25.83
2022-12-12T01:26:04.295Z,28.10
2022-12-12T01:28:31.884Z,29.77
2022-12-12T01:30:59.314Z,28.70
2022-12-12T01:33:27.222Z,27.77
2022-12-12T01:35:54.613Z,28.63
2022-12-12T01:38:22.484Z,28.00
2022-12-12T01:40:51.507Z,29.73
2022-12-12T01:43:19.927Z,27.20
2022-12-12T01:46:00.153Z,25.70
2022-12-12T01:48:30.107Z,26.53
2022-12-12T01:51:00.213Z,28.20
2022-12-12T01:53:29.498Z,27.23
2022-12-12T01:55:57.015Z,26.40
2022-12-12T01:58:24.379Z,27.67
2022-12-12T02:00:52.474Z,27.90
2022-12-12T02:03:19.875Z,28.60
2022-12-12T02:05:49.832Z,27.00
2022-12-12T02:08:18.529Z,27.40
2022-12-12T02:10:46.456Z,27.67
2022-12-12T02:13:16.279Z,26.40
2022-12-12T02:15:46.224Z,26.87
2022-12-12T02:18:20.176Z,27.60
2022-12-12T02:20:54.247Z,27.87
2022-12-12T02:23:35.961Z,26.53
2022-12-12T02:26:04.323Z,28.80
2022-12-12T02:28:51.685Z,28.50
2022-12-12T02:31:37.648Z,26.73
2022-12-12T02:34:14.735Z,28.40
2022-12-12T02:36:47.424Z,28.20
2022-12-12T02:39:19.070Z,25.87
2022-12-12T02:42:05.703Z,27.13
2022-12-12T02:44:36.432Z,27.07
2022-12-12T02:47:07.183Z,27.40
2022-12-12T02:49:41.550Z,27.57
2022-12-12T02:52:10.062Z,27.10
2022-12-12T02:54:37.899Z,27.13
2022-12-12T02:57:06.746Z,28.60
2022-12-12T02:59:36.707Z,28.07
2022-12-12T03:02:25.230Z,27.30
2022-12-12T03:05:20.484Z,27.60
2022-12-12T03:07:51.031Z,27.33
2022-12-12T03:10:24.727Z,26.97
2022-12-12T03:13:04.813Z,31.67
2022-12-12T03:15:43.548Z,30.27
2022-12-12T03:18:11.036Z,25.90
2022-12-12T03:20:46.124Z,29.67
2022-12-12T03:23:18.914Z,30.00
2022-12-12T03:25:50.984Z,30.00
2022-12-12T03:28:21.276Z,27.67
2022-12-12T03:30:51.035Z,25.87
2022-12-12T03:33:24.245Z,27.60
2022-12-12T03:35:57.114Z,29.07
2022-12-12T03:38:26.700Z,27.23
2022-12-12T03:40:55.618Z,26.90
2022-12-12T03:43:27.423Z,29.60
2022-12-12T03:45:58.125Z,29.03
2022-12-12T03:48:27.354Z,28.23
2022-12-12T03:50:56.655Z,27.47
2022-12-12T03:53:43.097Z,27.70
2022-12-12T03:56:24.319Z,23.93
2022-12-12T03:58:57.686Z,26.90
2022-12-12T04:01:28.457Z,27.63
2022-12-12T04:03:59.094Z,27.20
2022-12-12T04:06:36.272Z,26.40
2022-12-12T04:09:25.164Z,28.53
2022-12-12T04:12:11.623Z,24.00
2022-12-12T04:14:55.559Z,25.00
2022-12-12T04:17:26.109Z,27.80
2022-12-12T04:20:12.333Z,26.60
2022-12-12T04:23:00.686Z,27.37
2022-12-12T04:25:57.094Z,28.70
2022-12-12T04:28:25.890Z,28.00
2022-12-12T04:30:53.315Z,26.00
2022-12-12T04:33:21.463Z,25.07
2022-12-12T04:35:50.579Z,26.83
2022-12-12T04:38:23.035Z,25.90
2022-12-12T04:40:52.168Z,27.33
2022-12-12T04:43:25.232Z,26.10
2022-12-12T04:45:54.798Z,27.63
2022-12-12T04:48:29.229Z,26.50
2022-12-12T04:50:58.160Z,26.30
2022-12-12T04:53:30.131Z,28.20
2022-12-12T04:55:58.093Z,29.70
2022-12-12T04:58:26.186Z,26.47
2022-12-12T05:00:59.495Z,27.90
2022-12-12T05:03:30.182Z,27.50
2022-12-12T05:05:59.277Z,29.30
2022-12-12T05:08:34.083Z,26.73
2022-12-12T05:11:03.608Z,26.87
2022-12-12T05:13:35.309Z,29.23
2022-12-12T05:16:04.684Z,26.80
2022-12-12T05:18:32.124Z,27.00
2022-12-12T05:20:59.266Z,28.83
2022-12-12T05:23:31.523Z,28.17
2022-12-12T05:26:09.940Z,28.60
2022-12-12T05:28:37.729Z,27.37
2022-12-12T05:31:05.882Z,26.73
2022-12-12T05:33:34.711Z,25.37
2022-12-12T05:36:02.045Z,28.70
2022-12-12T05:38:30.801Z,28.43
2022-12-12T05:40:58.502Z,27.30
2022-12-12T05:43:26.102Z,28.87
2022-12-12T05:45:54.546Z,27.67
2022-12-12T05:48:24.579Z,26.47
2022-12-12T05:50:52.408Z,28.37
2022-12-12T05:53:20.157Z,27.63
2022-12-12T05:55:49.475Z,28.80
2022-12-12T05:58:16.835Z,26.80
2022-12-12T06:00:44.123Z,27.00
2022-12-12T06:03:12.295Z,28.80
2022-12-12T06:05:40.568Z,26.70
2022-12-12T06:08:07.832Z,27.77
2022-12-12T06:10:35.719Z,27.23
2022-12-12T06:13:03.756Z,28.37
2022-12-12T06:15:31.679Z,25.83
2022-12-12T06:18:01.724Z,25.20
2022-12-12T06:20:30.922Z,27.80
2022-12-12T06:22:58.842Z,27.23
2022-12-12T06:25:26.492Z,25.00
2022-12-12T06:27:54.294Z,28.13
2022-12-12T06:30:21.836Z,24.93
2022-12-12T06:32:49.203Z,25.47
2022-12-12T06:35:16.830Z,25.17
2022-12-12T06:37:43.971Z,26.10
2022-12-12T06:40:11.775Z,26.63
2022-12-12T06:42:44.649Z,25.13
2022-12-12T06:45:15.749Z,27.07
2022-12-12T06:47:43.386Z,27.47
2022-12-12T06:50:11.786Z,27.33
2022-12-12T06:52:39.444Z,26.00
2022-12-12T06:55:07.957Z,24.90
2022-12-12T06:57:35.793Z,24.90
2022-12-12T07:00:04.449Z,25.70
2022-12-12T07:02:32.210Z,24.57
2022-12-12T07:05:00.623Z,25.57
2022-12-12T07:07:29.129Z,24.60
2022-12-12T07:09:56.229Z,26.37
2022-12-12T07:12:24.341Z,24.00
2022-12-12T07:14:51.810Z,24.17
2022-12-12T07:17:18.969Z,24.47
2022-12-12T07:19:46.512Z,25.43
2022-12-12T07:22:15.640Z,25.37
2022-12-12T07:24:43.101Z,24.57
2022-12-12T07:27:10.578Z,24.50
2022-12-12T07:29:38.098Z,25.50
2022-12-12T07:32:05.544Z,25.03
2022-12-12T07:34:33.088Z,22.60
2022-12-12T07:37:03.121Z,25.40
2022-12-12T07:39:34.181Z,22.37
2022-12-12T07:42:04.739Z,25.53
2022-12-12T07:44:32.380Z,23.57
2022-12-12T07:47:00.020Z,24.27
2022-12-12T07:49:29.664Z,23.93
2022-12-12T07:51:57.181Z,25.00
2022-12-12T07:54:24.963Z,24.40
2022-12-12T07:56:52.237Z,24.30
2022-12-12T07:59:19.365Z,25.37
2022-12-12T08:01:46.619Z,24.80
2022-12-12T08:04:13.829Z,24.73
2022-12-12T08:06:40.979Z,26.50
2022-12-12T08:09:08.219Z,24.90
2022-12-12T08:11:36.183Z,22.13
2022-12-12T08:14:11.203Z,25.67
2022-12-12T08:16:41.007Z,27.83
2022-12-12T08:19:08.156Z,30.73
2022-12-12T08:21:35.332Z,28.80
2022-12-12T08:24:03.004Z,23.53
2022-12-12T08:26:30.620Z,23.00
2022-12-12T08:28:59.006Z,25.03
2022-12-12T08:31:26.365Z,25.80
2022-12-12T08:33:53.662Z,28.17
2022-12-12T08:36:23.445Z,25.53
2022-12-12T08:38:51.016Z,24.60
2022-12-12T08:41:19.159Z,24.30
2022-12-12T08:43:46.546Z,22.57
2022-12-12T08:46:17.731Z,23.57
2022-12-12T08:48:46.074Z,23.83
2022-12-12T08:51:13.322Z,23.37
2022-12-12T08:53:40.527Z,24.90
2022-12-12T08:56:07.927Z,23.70
2022-12-12T08:58:35.128Z,21.23
2022-12-12T09:01:02.289Z,20.00
2022-12-12T09:03:29.938Z,20.63
2022-12-12T09:05:57.515Z,20.80
2022-12-12T09:08:24.828Z,24.23
2022-12-12T09:10:52.109Z,37.07
2022-12-12T09:13:20.770Z,22.73
2022-12-12T09:15:51.312Z,20.30
2022-12-12T09:18:19.493Z,23.30
2022-12-12T09:20:53.857Z,20.60
2022-12-12T09:23:21.645Z,19.40
2022-12-12T09:25:48.833Z,21.30
2022-12-12T09:28:16.908Z,21.17
2022-12-12T09:30:44.686Z,20.30
2022-12-12T09:33:12.056Z,21.77
2022-12-12T09:35:39.400Z,20.53
2022-12-12T09:38:12.452Z,21.97
2022-12-12T09:41:00.295Z,19.10
2022-12-12T09:43:32.100Z,24.38
2022-12-12T09:46:00.649Z,24.70
2022-12-12T09:48:31.638Z,24.17
2022-12-12T09:50:58.845Z,23.43
2022-12-12T09:53:27.218Z,24.67
2022-12-12T09:56:00.789Z,22.10
2022-12-12T09:58:34.263Z,27.77
2022-12-12T10:01:10.040Z,23.67
2022-12-12T10:03:37.222Z,23.20
2022-12-12T10:06:35.786Z,23.30
2022-12-12T10:09:03.564Z,24.13
2022-12-12T10:11:51.840Z,21.87
2022-12-12T10:14:21.758Z,26.27
2022-12-12T10:16:55.680Z,24.33
2022-12-12T10:19:27.210Z,22.10
2022-12-12T10:21:57.410Z,22.37
2022-12-12T10:24:33.259Z,22.53
2022-12-12T10:27:02.314Z,22.90
2022-12-12T10:29:29.622Z,21.47
2022-12-12T10:32:06.350Z,23.20
2022-12-12T10:34:37.158Z,24.20
2022-12-12T10:37:31.406Z,23.70
2022-12-12T10:40:14.624Z,21.30
2022-12-12T10:42:51.969Z,19.33
2022-12-12T10:45:19.162Z,20.90
2022-12-12T10:47:47.481Z,20.03
2022-12-12T10:50:20.713Z,22.97
2022-12-12T10:52:48.128Z,25.87
2022-12-12T10:55:22.408Z,27.53
2022-12-12T10:58:01.181Z,29.13
2022-12-12T11:00:48.770Z,29.17
2022-12-12T11:03:27.943Z,30.20
2022-12-12T11:05:58.218Z,29.20
2022-12-12T11:08:30.090Z,30.00
2022-12-12T11:11:18.249Z,31.87
2022-12-12T11:13:53.134Z,29.67
2022-12-12T11:16:31.144Z,29.30
2022-12-12T11:19:05.266Z,30.97
2022-12-12T11:21:34.134Z,31.20
2022-12-12T11:24:05.415Z,32.40
2022-12-12T11:26:39.371Z,31.97
2022-12-12T11:29:07.708Z,31.20
2022-12-12T11:31:35.892Z,30.13
2022-12-12T11:34:06.061Z,33.70
2022-12-12T11:36:35.623Z,32.80
2022-12-12T11:39:12.645Z,31.43
2022-12-12T11:41:58.909Z,31.17
2022-12-12T11:44:31.543Z,31.20
2022-12-12T11:47:15.869Z,30.70
2022-12-12T11:49:47.923Z,29.77
2022-12-12T11:52:27.348Z,31.43
2022-12-12T11:54:55.848Z,32.50
2022-12-12T11:57:22.965Z,29.73
2022-12-12T11:59:59.426Z,30.77
2022-12-12T12:02:44.650Z,27.83
2022-12-12T12:05:17.860Z,29.30
2022-12-12T12:07:47.843Z,28.20
2022-12-12T12:10:24.749Z,27.97
2022-12-12T12:13:23.286Z,28.23
2022-12-12T12:16:04.142Z,27.40
2022-12-12T12:18:36.488Z,28.23
2022-12-12T12:21:06.445Z,29.17
2022-12-12T12:23:48.849Z,27.30
2022-12-12T12:26:26.055Z,27.17
2022-12-12T12:28:53.190Z,26.87
2022-12-12T12:31:59.263Z,26.27
2022-12-12T12:34:38.757Z,24.57
2022-12-12T12:37:24.507Z,25.10
2022-12-12T12:39:57.322Z,24.97
2022-12-12T12:42:37.226Z,26.37
2022-12-12T12:45:08.368Z,28.27
2022-12-12T12:47:54.687Z,26.80
2022-12-12T12:50:27.347Z,24.70
2022-12-12T12:52:57.492Z,27.50
2022-12-12T12:55:26.994Z,25.23
2022-12-12T12:57:54.415Z,23.63
2022-12-12T13:00:26.695Z,25.23
2022-12-12T13:02:56.967Z,24.10
2022-12-12T13:05:32.064Z,24.23
2022-12-12T13:08:25.334Z,22.33
2022-12-12T13:10:55.116Z,23.23
2022-12-12T13:13:24.437Z,25.87
2022-12-12T13:15:53.800Z,24.13
2022-12-12T13:18:21.046Z,21.63
2022-12-12T13:20:50.708Z,24.60
2022-12-12T13:23:19.199Z,26.20
2022-12-12T13:26:05.437Z,21.17
2022-12-12T13:28:54.195Z,26.90
2022-12-12T13:31:39.952Z,25.60
2022-12-12T13:34:09.559Z,25.50
2022-12-12T13:36:38.979Z,24.60
2022-12-12T13:39:07.118Z,22.50
2022-12-12T13:41:52.877Z,22.33
2022-12-12T13:44:38.503Z,22.30
2022-12-12T13:47:12.009Z,21.50
2022-12-12T13:49:45.264Z,21.63
2022-12-12T13:52:38.547Z,21.43
2022-12-12T13:55:11.468Z,20.47
2022-12-12T13:58:05.413Z,21.13
2022-12-12T14:00:33.148Z,18.73
2022-12-12T14:03:10.627Z,20.47
2022-12-12T14:05:41.079Z,19.67
2022-12-12T14:08:11.303Z,21.47
2022-12-12T14:10:41.187Z,21.03
2022-12-12T14:13:23.696Z,25.20
2022-12-12T14:16:05.136Z,24.30
2022-12-12T14:18:32.400Z,21.53
2022-12-12T14:21:03.285Z,21.50
2022-12-12T14:23:32.065Z,23.77
2022-12-12T14:25:59.876Z,23.43
2022-12-12T14:28:31.184Z,24.10
2022-12-12T14:31:01.431Z,22.70
2022-12-12T14:33:47.958Z,21.57
2022-12-12T14:36:27.443Z,20.40
2022-12-12T14:39:02.606Z,23.27
2022-12-12T14:41:33.411Z,20.37
2022-12-12T14:44:36.395Z,24.73
2022-12-12T14:46:50.143Z,23.30
2022-12-12T14:49:18.114Z,25.13
2022-12-12T14:51:46.301Z,24.30
2022-12-12T14:54:16.315Z,22.07
2022-12-12T14:56:52.587Z,24.67
2022-12-12T14:59:23.522Z,24.63
2022-12-12T15:01:52.585Z,26.23
2022-12-12T15:04:27.996Z,23.50
2022-12-12T15:07:07.610Z,28.20
2022-12-12T15:09:36.123Z,26.43
2022-12-12T15:12:12.590Z,25.40
2022-12-12T15:14:40.708Z,19.63
2022-12-12T15:17:28.662Z,20.67
2022-12-12T15:20:00.571Z,23.13
2022-12-12T15:22:38.289Z,23.20
2022-12-12T15:25:16.010Z,18.90
2022-12-12T15:27:50.723Z,22.80
2022-12-12T15:30:41.850Z,17.67
2022-12-12T15:33:15.323Z,18.23
2022-12-12T15:35:48.836Z,21.93
2022-12-12T15:38:16.015Z,20.73
2022-12-12T15:40:45.451Z,20.83
2022-12-12T15:43:14.713Z,23.20
2022-12-12T15:46:01.079Z,23.40
2022-12-12T15:48:28.349Z,23.10
2022-12-12T15:50:57.899Z,23.47
2022-12-12T15:53:26.223Z,21.90
2022-12-12T15:56:10.627Z,23.07
2022-12-12T15:58:38.926Z,24.30
2022-12-12T16:01:20.038Z,25.50
2022-12-12T16:04:06.368Z,23.90
2022-12-12T16:06:34.666Z,24.23
2022-12-12T16:09:08.055Z,21.83
2022-12-12T16:11:38.203Z,25.53
2022-12-12T16:14:06.683Z,24.60
2022-12-12T16:16:36.962Z,23.40
2022-12-12T16:19:05.369Z,24.10
2022-12-12T16:21:34.373Z,23.83
2022-12-12T16:24:09.827Z,24.73
2022-12-12T16:26:37.028Z,24.63
2022-12-12T16:29:04.993Z,22.83
2022-12-12T16:31:32.232Z,25.87
2022-12-12T16:34:02.313Z,24.77
2022-12-12T16:36:29.455Z,24.47
2022-12-12T16:38:56.846Z,24.57
2022-12-12T16:41:24.032Z,24.83
2022-12-12T16:43:51.175Z,24.93
2022-12-12T16:46:20.237Z,26.50
2022-12-12T16:48:47.496Z,25.00
2022-12-12T16:51:28.036Z,35.33
2022-12-12T16:53:55.576Z,23.63
2022-12-12T16:56:22.852Z,23.73
2022-12-12T16:58:50.507Z,33.60
2022-12-12T17:01:18.592Z,31.27
2022-12-12T17:03:45.801Z,25.07
2022-12-12T17:06:12.977Z,22.90
2022-12-12T17:08:40.116Z,22.80
2022-12-12T17:11:10.056Z,23.00
2022-12-12T17:13:38.415Z,21.97
2022-12-12T17:16:05.692Z,22.10
2022-12-12T17:18:34.237Z,21.60
2022-12-12T17:21:01.353Z,23.27
2022-12-12T17:23:29.908Z,26.27
2022-12-12T17:26:03.410Z,24.40
2022-12-12T17:28:32.470Z,23.70
2022-12-12T17:31:00.125Z,24.80
2022-12-12T17:33:27.727Z,23.80
2022-12-12T17:36:02.827Z,25.03
2022-12-12T17:38:30.850Z,23.97
2022-12-12T17:40:58.791Z,24.57
2022-12-12T17:43:26.050Z,24.73
2022-12-12T17:46:00.452Z,24.83
2022-12-12T17:48:29.875Z,25.60
2022-12-12T17:51:00.847Z,24.50
2022-12-12T17:53:32.584Z,23.80
2022-12-12T17:56:07.669Z,24.30
2022-12-12T17:58:36.867Z,23.80
2022-12-12T18:01:10.885Z,22.53
2022-12-12T18:03:38.118Z,21.67
2022-12-12T18:06:05.615Z,24.67
2022-12-12T18:08:32.830Z,22.57
2022-12-12T18:11:00.056Z,23.47
2022-12-12T18:13:28.097Z,25.70
2022-12-12T18:15:59.721Z,23.93
2022-12-12T18:18:27.256Z,22.23
2022-12-12T18:20:54.428Z,23.77
2022-12-12T18:23:21.842Z,24.40
2022-12-12T18:25:49.117Z,25.67
2022-12-12T18:28:16.365Z,23.50
2022-12-12T18:30:43.550Z,23.67
2022-12-12T18:33:10.934Z,23.97
2022-12-12T18:35:38.098Z,24.47
2022-12-12T18:38:05.278Z,23.90
2022-12-12T18:40:32.454Z,22.40
2022-12-12T18:42:59.575Z,25.10
2022-12-12T18:45:26.764Z,24.53
2022-12-12T18:47:54.982Z,23.57
2022-12-12T18:50:22.360Z,23.27
2022-12-12T18:52:49.522Z,23.83
2022-12-12T18:55:16.882Z,24.47
2022-12-12T18:57:44.979Z,22.50
2022-12-12T19:00:12.747Z,23.00
2022-12-12T19:02:40.521Z,23.90
2022-12-12T19:05:07.988Z,23.00
2022-12-12T19:07:36.596Z,22.20
2022-12-12T19:10:03.932Z,22.80
2022-12-12T19:12:31.643Z,24.03
2022-12-12T19:15:16.289Z,24.73
2022-12-12T19:17:44.446Z,23.47
2022-12-12T19:20:13.090Z,24.70
2022-12-12T19:22:45.367Z,25.50
2022-12-12T19:25:13.999Z,23.90
2022-12-12T19:27:42.082Z,24.10
2022-12-12T19:30:10.156Z,23.80
2022-12-12T19:32:37.318Z,23.73
2022-12-12T19:35:05.149Z,25.80
2022-12-12T19:37:32.884Z,22.80
2022-12-12T19:40:00.031Z,24.23
2022-12-12T19:42:28.584Z,23.20
2022-12-12T19:44:55.765Z,24.53
2022-12-12T19:47:22.922Z,24.50
2022-12-12T19:49:50.784Z,24.43
2022-12-12T19:52:19.583Z,22.73
2022-12-12T19:54:47.782Z,21.77
2022-12-12T19:57:14.947Z,23.40
2022-12-12T19:59:44.157Z,26.30
2022-12-12T20:02:12.312Z,23.90
2022-12-12T20:04:39.508Z,24.33
2022-12-12T20:07:06.705Z,26.07
2022-12-12T20:09:35.632Z,25.33
2022-12-12T20:12:02.930Z,25.17
2022-12-12T20:14:31.423Z,23.57
2022-12-12T20:16:58.970Z,24.00
2022-12-12T20:19:27.764Z,24.47
2022-12-12T20:22:01.226Z,24.30
2022-12-12T20:24:29.895Z,23.63
2022-12-12T20:26:57.327Z,27.30
2022-12-12T20:29:24.533Z,26.30
2022-12-12T20:31:51.679Z,26.00
2022-12-12T20:34:22.416Z,23.87
2022-12-12T20:36:50.190Z,25.53
2022-12-12T20:39:21.946Z,23.07
2022-12-12T20:41:49.836Z,26.07
2022-12-12T20:44:17.325Z,25.50
2022-12-12T20:46:45.405Z,25.57
2022-12-12T20:49:15.717Z,26.27
2022-12-12T20:51:55.478Z,23.90
2022-12-12T20:54:24.709Z,24.30
2022-12-12T20:56:53.654Z,24.33
2022-12-12T20:59:22.498Z,24.60
2022-12-12T21:01:49.800Z,24.27
2022-12-12T21:04:17.090Z,24.13
2022-12-12T21:06:47.776Z,24.93
2022-12-12T21:09:22.832Z,23.90
2022-12-12T21:11:50.805Z,23.87
2022-12-12T21:14:18.007Z,23.20
2022-12-12T21:16:45.162Z,21.63
2022-12-12T21:19:14.132Z,23.67
2022-12-12T21:21:42.036Z,21.93
2022-12-12T21:24:10.400Z,23.80
2022-12-12T21:26:37.554Z,21.50
2022-12-12T21:29:05.761Z,24.10
2022-12-12T21:31:35.211Z,22.00
2022-12-12T21:34:02.776Z,22.20
2022-12-12T21:36:30.578Z,24.80
2022-12-12T21:38:58.589Z,25.20
2022-12-12T21:41:27.073Z,22.83
2022-12-12T21:43:55.629Z,21.60
2022-12-12T21:46:24.022Z,23.00
2022-12-12T21:49:11.476Z,25.30
2022-12-12T21:51:39.484Z,23.23
2022-12-12T21:54:07.224Z,24.57
2022-12-12T21:56:34.404Z,21.57
2022-12-12T21:59:03.215Z,24.90
2022-12-12T22:01:32.217Z,22.00
2022-12-12T22:04:00.201Z,23.20
2022-12-12T22:06:28.810Z,23.27
2022-12-12T22:08:57.451Z,23.67
2022-12-12T22:11:40.212Z,21.90
2022-12-12T22:14:09.276Z,23.73
2022-12-12T22:16:36.917Z,22.37
2022-12-12T22:19:08.574Z,22.17
2022-12-12T22:21:36.258Z,23.10
2022-12-12T22:24:04.049Z,20.87
2022-12-12T22:26:35.597Z,23.40
2022-12-12T22:29:04.512Z,23.37
2022-12-12T22:31:35.181Z,21.60
2022-12-12T22:34:04.411Z,23.67
2022-12-12T22:36:32.789Z,23.73
2022-12-12T22:39:00.329Z,26.00
2022-12-12T22:41:28.733Z,22.10
2022-12-12T22:43:57.146Z,24.67
2022-12-12T22:46:25.996Z,22.23
2022-12-12T22:48:54.043Z,22.50
2022-12-12T22:51:23.729Z,23.10
2022-12-12T22:53:51.001Z,23.63
2022-12-12T22:56:18.198Z,22.40
2022-12-12T22:58:45.602Z,22.30
2022-12-12T23:01:14.307Z,22.50
2022-12-12T23:03:41.706Z,23.90
2022-12-12T23:06:16.946Z,22.80
2022-12-12T23:08:50.095Z,24.07
2022-12-12T23:11:17.973Z,23.70
2022-12-12T23:13:45.535Z,22.90
2022-12-12T23:16:14.782Z,21.30
2022-12-12T23:18:43.049Z,21.57
2022-12-12T23:21:16.484Z,21.10
2022-12-12T23:23:45.078Z,21.43
2022-12-12T23:26:20.029Z,21.53
2022-12-12T23:28:47.858Z,21.30
2022-12-12T23:31:18.768Z,22.33
2022-12-12T23:33:46.660Z,23.90
2022-12-12T23:36:15.181Z,23.17
2022-12-12T23:38:44.928Z,24.97
2022-12-12T23:41:13.987Z,22.17
2022-12-12T23:43:42.386Z,21.70
2022-12-12T23:46:28.431Z,22.73
2022-12-12T23:48:57.441Z,21.80
2022-12-12T23:51:25.603Z,22.90
2022-12-12T23:53:53.058Z,20.20
2022-12-12T23:56:20.594Z,21.55
2022-12-12T23:58:48.045Z,21.38
